Time;durP1;ratioP1;P1;durP2;ratioP2;P2;SDS_P1;SDS_P2;PMS_P1;PMS_P2;Temp;Humidity;BMP_temperature;BMP_pressure;BME280_temperature;BME280_humidity;BME280_pressure;Samples;Min_cycle;Max_cycle;Signal;HPM_P1;HPM_P2
2024/04/25 00:01:19;;;;;;;6.50;3.20;;;18.00;38.60;;;;;;5453014;26;20247;-63
2024/04/25 00:03:48;;;;;;;6.22;2.63;;;18.00;38.60;;;;;;5453320;26;20266;-62
2024/04/25 00:06:17;;;;;;;5.68;3.10;;;18.00;38.60;;;;;;5453158;26;20248;-63
2024/04/25 00:08:46;;;;;;;5.63;2.88;;;18.00;38.60;;;;;;5453100;26;20450;-63
2024/04/25 00:11:17;;;;;;;5.10;2.70;;;18.00;38.60;;;;;;5453329;26;20258;-63
2024/04/25 00:13:45;;;;;;;6.82;3.05;;;18.00;38.70;;;;;;5453261;26;20231;-62
2024/04/25 00:16:17;;;;;;;6.35;2.90;;;17.90;38.60;;;;;;5453007;26;20340;-62
2024/04/25 00:18:46;;;;;;;6.18;2.70;;;17.90;38.60;;;;;;5453151;26;20216;-62
2024/04/25 00:21:15;;;;;;;8.32;2.80;;;17.90;38.60;;;;;;5453027;26;20231;-62
2024/04/25 00:23:43;;;;;;;5.78;2.90;;;17.90;38.60;;;;;;5452684;26;20228;-62
2024/04/25 00:26:12;;;;;;;7.28;2.80;;;17.90;38.60;;;;;;5451563;26;20278;-63
2024/04/25 00:28:41;;;;;;;5.00;3.17;;;17.80;38.50;;;;;;5453218;26;20219;-63
2024/04/25 00:31:09;;;;;;;6.30;2.97;;;17.90;39.20;;;;;;5452820;26;20228;-63
2024/04/25 00:33:40;;;;;;;6.40;2.75;;;17.90;38.60;;;;;;5452975;26;20220;-63
2024/04/25 00:36:09;;;;;;;6.45;3.17;;;17.90;39.20;;;;;;5452461;26;20283;-62
2024/04/25 00:38:38;;;;;;;5.80;3.30;;;17.80;38.50;;;;;;5452733;26;20220;-62
2024/04/25 00:41:07;;;;;;;6.70;3.10;;;17.80;38.50;;;;;;5452854;26;20274;-62
2024/04/25 00:43:35;;;;;;;4.97;3.20;;;17.80;38.50;;;;;;5452825;26;20258;-63
2024/04/25 00:46:04;;;;;;;5.00;2.97;;;17.80;38.50;;;;;;5452480;26;20251;-62
2024/04/25 00:48:34;;;;;;;7.63;3.25;;;17.80;39.20;;;;;;5452611;26;20224;-63
2024/04/25 00:51:09;;;;;;;5.07;3.25;;;17.80;38.50;;;;;;5452655;26;20236;-62
2024/04/25 00:53:38;;;;;;;5.22;2.92;;;17.80;38.50;;;;;;5452415;26;20257;-63
2024/04/25 00:56:09;;;;;;;4.55;2.75;;;17.80;38.50;;;;;;5452547;26;20223;-63
2024/04/25 00:58:39;;;;;;;5.43;3.20;;;17.80;38.50;;;;;;5452626;26;20224;-62
2024/04/25 01:01:11;;;;;;;8.35;3.38;;;17.80;39.10;;;;;;5452280;26;20232;-62
2024/04/25 01:03:40;;;;;;;5.93;3.45;;;17.80;39.20;;;;;;5452600;26;20263;-62
2024/04/25 01:06:13;;;;;;;4.65;3.08;;;17.80;38.50;;;;;;5452283;26;20266;-61
2024/04/25 01:08:41;;;;;;;5.75;3.08;;;17.80;38.60;;;;;;5452344;26;21011;-63
2024/04/25 01:11:10;;;;;;;7.10;3.30;;;17.70;38.40;;;;;;5452042;26;20227;-62
2024/04/25 01:13:39;;;;;;;6.15;3.22;;;17.70;38.40;;;;;;5452433;26;20215;-60
2024/04/25 01:16:11;;;;;;;6.78;3.00;;;17.70;38.40;;;;;;5452570;26;21001;-62
2024/04/25 01:18:40;;;;;;;8.85;3.75;;;17.70;38.40;;;;;;5451785;26;20270;-62
2024/04/25 01:21:11;;;;;;;5.82;2.95;;;17.70;39.10;;;;;;5452108;26;20271;-63
2024/04/25 01:23:41;;;;;;;5.55;3.42;;;17.70;38.40;;;;;;5452276;26;20721;-62
2024/04/25 01:26:14;;;;;;;6.95;3.35;;;17.70;38.40;;;;;;5451996;26;20235;-62
2024/04/25 01:28:44;;;;;;;11.88;3.60;;;17.70;38.40;;;;;;5451875;26;20220;-62
2024/04/25 01:31:12;;;;;;;4.85;3.03;;;17.70;38.40;;;;;;5451851;26;20236;-62
2024/04/25 01:33:42;;;;;;;9.43;3.50;;;17.70;38.40;;;;;;5451825;26;20258;-59
2024/04/25 01:36:11;;;;;;;5.93;3.28;;;17.70;38.40;;;;;;5451551;26;20278;-61
2024/04/25 01:38:39;;;;;;;6.50;3.35;;;17.70;38.40;;;;;;5455122;26;20611;-63
2024/04/25 01:41:08;;;;;;;6.50;3.28;;;17.60;39.00;;;;;;5454899;26;20232;-62
2024/04/25 01:43:39;;;;;;;5.70;3.15;;;17.60;38.30;;;;;;5455244;26;20228;-62
2024/04/25 01:46:09;;;;;;;5.90;3.33;;;17.70;38.40;;;;;;5455050;26;20228;-63
2024/04/25 01:48:37;;;;;;;5.18;3.00;;;17.70;39.10;;;;;;5455257;26;20335;-62
2024/04/25 01:51:06;;;;;;;4.55;3.03;;;17.60;38.30;;;;;;5454978;26;20228;-60
2024/04/25 01:53:35;;;;;;;6.70;3.42;;;17.60;38.30;;;;;;5455185;26;20266;-63
2024/04/25 01:56:04;;;;;;;5.93;3.20;;;17.60;38.30;;;;;;5455105;26;20239;-62
2024/04/25 01:58:32;;;;;;;4.88;2.85;;;17.60;38.90;;;;;;5454738;26;20439;-59
2024/04/25 02:01:03;;;;;;;6.68;3.38;;;17.60;38.30;;;;;;5454966;26;20768;-61
2024/04/25 02:03:32;;;;;;;6.47;3.33;;;17.60;38.30;;;;;;5455008;26;20356;-62
2024/04/25 02:06:01;;;;;;;4.72;3.10;;;17.60;38.30;;;;;;5454714;26;20776;-62
2024/04/25 02:08:30;;;;;;;9.05;3.58;;;17.60;38.90;;;;;;5454858;26;20275;-62
2024/04/25 02:10:59;;;;;;;8.93;3.42;;;17.60;38.90;;;;;;5455387;26;20282;-62
2024/04/25 02:13:28;;;;;;;6.57;3.53;;;17.60;38.30;;;;;;5454480;26;20224;-61
2024/04/25 02:15:56;;;;;;;5.78;3.50;;;17.60;38.20;;;;;;5454710;26;20290;-61
2024/04/25 02:18:27;;;;;;;6.20;3.10;;;17.60;38.30;;;;;;5454780;26;20262;-63
2024/04/25 02:26:25;;;;;;;9.57;3.40;;;17.50;38.20;;;;;;5457413;26;20258;-62
2024/04/25 02:28:54;;;;;;;4.78;3.22;;;17.50;38.80;;;;;;5454668;26;20216;-63
2024/04/25 02:31:28;;;;;;;6.65;3.58;;;17.50;38.80;;;;;;5452265;26;20262;-62
2024/04/25 02:33:59;;;;;;;5.38;3.55;;;17.50;38.80;;;;;;5428629;26;20233;-63
2024/04/25 02:36:28;;;;;;;7.10;3.20;;;17.50;38.10;;;;;;5418628;26;20229;-62
2024/04/25 02:38:56;;;;;;;8.95;3.55;;;17.50;38.10;;;;;;5418487;26;20221;-62
2024/04/25 02:41:25;;;;;;;5.20;3.22;;;17.50;38.10;;;;;;5418457;26;20233;-62
2024/04/25 02:43:51;;;;;;;6.35;3.15;;;17.50;38.10;;;;;;5418207;26;20329;-62
2024/04/25 02:46:21;;;;;;;5.50;3.35;;;17.50;38.10;;;;;;5418393;26;20661;-61
2024/04/25 02:48:47;;;;;;;8.30;3.40;;;17.50;38.10;;;;;;5417559;26;20352;-63
2024/04/25 02:51:19;;;;;;;6.85;3.35;;;17.50;38.10;;;;;;5418203;26;20248;-61
2024/04/25 02:53:44;;;;;;;5.68;3.20;;;17.50;38.10;;;;;;5418255;26;20217;-63
2024/04/25 02:56:13;;;;;;;6.50;3.85;;;17.50;38.80;;;;;;5418264;26;20237;-63
2024/04/25 02:58:39;;;;;;;4.78;3.08;;;17.50;38.10;;;;;;5417992;26;20217;-61
2024/04/25 03:01:08;;;;;;;5.82;3.22;;;17.50;38.70;;;;;;5418183;26;20283;-63
2024/04/25 03:03:34;;;;;;;6.32;2.92;;;17.50;38.70;;;;;;5418403;26;20263;-60
2024/04/25 03:06:02;;;;;;;6.28;3.05;;;17.50;38.70;;;;;;5418029;26;20244;-62
2024/04/25 03:08:31;;;;;;;5.97;3.20;;;17.50;38.70;;;;;;5418209;26;20217;-63
2024/04/25 03:11:04;;;;;;;6.40;3.50;;;17.40;38.00;;;;;;5418129;26;20287;-62
2024/04/25 03:13:30;;;;;;;5.75;2.90;;;17.40;38.00;;;;;;5417948;26;20710;-62
2024/04/25 03:16:02;;;;;;;6.28;3.03;;;17.40;38.00;;;;;;5418045;26;20331;-62
2024/04/25 03:18:28;;;;;;;5.13;3.00;;;17.40;38.00;;;;;;5418248;26;20264;-62
2024/04/25 03:21:02;;;;;;;7.13;3.40;;;17.40;38.00;;;;;;5417786;26;20241;-62
2024/04/25 03:23:31;;;;;;;6.28;3.10;;;17.40;38.00;;;;;;5418015;26;20762;-61
2024/04/25 03:25:59;;;;;;;6.82;3.55;;;17.40;38.00;;;;;;5417816;26;20394;-60
2024/04/25 03:28:25;;;;;;;6.03;3.10;;;17.40;38.60;;;;;;5417681;26;20217;-62
2024/04/25 03:30:54;;;;;;;4.97;2.90;;;17.40;38.60;;;;;;5417657;26;20765;-63
2024/04/25 03:33:20;;;;;;;5.90;3.20;;;17.40;38.60;;;;;;5417830;26;20225;-62
2024/04/25 03:35:49;;;;;;;6.68;3.25;;;17.40;38.00;;;;;;5417505;26;20617;-62
2024/04/25 03:38:17;;;;;;;5.13;3.15;;;17.40;38.00;;;;;;5418036;26;20216;-63
2024/04/25 03:40:48;;;;;;;7.03;2.90;;;17.40;38.00;;;;;;5417752;26;20777;-63
2024/04/25 03:43:17;;;;;;;8.15;3.47;;;17.40;38.00;;;;;;5417460;26;20742;-62
2024/04/25 03:45:46;;;;;;;5.72;3.10;;;17.40;38.00;;;;;;5417876;26;20778;-62
2024/04/25 03:48:14;;;;;;;6.85;3.08;;;17.30;37.80;;;;;;5417618;26;20222;-60
2024/04/25 03:50:43;;;;;;;5.63;3.20;;;17.40;38.60;;;;;;5417355;26;20237;-62
2024/04/25 03:53:11;;;;;;;5.53;3.20;;;17.40;37.90;;;;;;5417670;26;20329;-62
2024/04/25 03:55:41;;;;;;;4.07;2.72;;;17.30;37.80;;;;;;5417522;26;20233;-61
2024/04/25 03:58:12;;;;;;;6.75;3.40;;;17.30;38.50;;;;;;5417480;26;20229;-61
2024/04/25 04:00:41;;;;;;;5.68;3.00;;;17.30;37.90;;;;;;5417437;26;20711;-62
2024/04/25 04:03:09;;;;;;;5.45;3.03;;;17.30;37.90;;;;;;5417257;26;20267;-63
2024/04/25 04:05:38;;;;;;;5.13;3.35;;;17.30;37.90;;;;;;5417289;26;20730;-63
2024/04/25 04:08:07;;;;;;;7.15;3.38;;;17.30;37.90;;;;;;5417443;26;20210;-61
2024/04/25 04:10:36;;;;;;;6.30;3.33;;;17.30;37.90;;;;;;5417459;26;20723;-63
2024/04/25 04:13:05;;;;;;;6.97;3.60;;;17.30;38.50;;;;;;5417030;26;20290;-59
2024/04/25 04:15:36;;;;;;;6.28;2.70;;;17.30;37.80;;;;;;5417342;26;20229;-63
2024/04/25 04:18:05;;;;;;;4.38;2.72;;;17.30;38.50;;;;;;5417185;26;20573;-60
2024/04/25 04:20:34;;;;;;;5.18;2.72;;;17.30;37.80;;;;;;5416747;26;20236;-62
2024/04/25 04:23:03;;;;;;;5.95;3.03;;;17.30;37.80;;;;;;5417219;26;20321;-61
2024/04/25 04:25:31;;;;;;;6.28;2.80;;;17.30;37.80;;;;;;5416880;26;20233;-61
2024/04/25 04:28:00;;;;;;;5.50;3.15;;;17.30;37.80;;;;;;5417171;26;20268;-63
2024/04/25 04:30:28;;;;;;;5.50;2.90;;;17.30;37.80;;;;;;5416631;26;20229;-61
2024/04/25 04:32:59;;;;;;;5.88;3.00;;;17.30;37.80;;;;;;5417141;26;20213;-63
2024/04/25 04:35:28;;;;;;;7.82;3.28;;;17.30;38.50;;;;;;5417009;26;20240;-63
2024/04/25 04:37:57;;;;;;;5.80;3.13;;;17.30;37.80;;;;;;5417162;26;20260;-62
2024/04/25 04:40:25;;;;;;;6.20;3.17;;;17.30;37.80;;;;;;5416919;26;20233;-62
2024/04/25 04:42:54;;;;;;;6.38;3.45;;;17.30;37.80;;;;;;5416671;26;20228;-61
2024/04/25 04:45:22;;;;;;;7.03;3.05;;;17.30;37.80;;;;;;5416800;26;20280;-62
2024/04/25 04:47:51;;;;;;;4.95;3.17;;;17.30;37.80;;;;;;5416995;26;20710;-63
2024/04/25 04:50:23;;;;;;;5.93;2.90;;;17.30;37.80;;;;;;5416529;26;20236;-60
2024/04/25 04:52:51;;;;;;;4.65;3.00;;;17.30;38.50;;;;;;5416758;26;20225;-62
2024/04/25 04:55:20;;;;;;;6.55;3.08;;;17.30;38.50;;;;;;5416931;26;20229;-63
2024/04/25 04:57:48;;;;;;;7.43;3.00;;;17.30;38.50;;;;;;5416531;26;20225;-62
2024/04/25 05:00:17;;;;;;;3.95;2.75;;;17.20;37.70;;;;;;5416645;26;20225;-62
2024/04/25 05:02:46;;;;;;;7.20;3.13;;;17.20;37.70;;;;;;5416651;26;20754;-61
2024/04/25 05:05:15;;;;;;;6.35;3.00;;;17.30;38.50;;;;;;5416239;26;20221;-62
2024/04/25 05:07:47;;;;;;;5.90;3.10;;;17.20;37.80;;;;;;5416439;26;20272;-61
2024/04/25 05:10:16;;;;;;;6.70;3.17;;;17.20;38.40;;;;;;5416504;26;20217;-62
2024/04/25 05:12:45;;;;;;;4.82;2.92;;;17.20;38.40;;;;;;5415367;26;20958;-61
2024/04/25 05:15:13;;;;;;;6.50;2.88;;;17.20;38.40;;;;;;5416440;26;20744;-63
2024/04/25 05:17:42;;;;;;;5.00;2.72;;;17.20;38.40;;;;;;5416446;26;20221;-63
2024/04/25 05:20:11;;;;;;;4.13;2.70;;;17.20;38.40;;;;;;5415887;26;20337;-60
2024/04/25 05:22:40;;;;;;;3.83;2.63;;;17.20;37.80;;;;;;5416580;26;20213;-62
2024/04/25 05:25:11;;;;;;;5.80;3.20;;;17.20;38.40;;;;;;5415984;26;20221;-63
2024/04/25 05:27:40;;;;;;;6.22;3.22;;;17.20;37.70;;;;;;5416298;26;20558;-62
2024/04/25 05:30:10;;;;;;;5.60;2.90;;;17.20;37.80;;;;;;5415823;26;20283;-62
2024/04/25 05:32:38;;;;;;;4.65;2.67;;;17.20;37.80;;;;;;5416091;26;20228;-62
2024/04/25 05:35:07;;;;;;;5.60;3.30;;;17.20;38.40;;;;;;5416059;26;20217;-62
2024/04/25 05:37:36;;;;;;;5.63;3.00;;;17.20;37.80;;;;;;5415884;26;20726;-62
2024/04/25 05:40:04;;;;;;;4.95;2.63;;;17.20;38.40;;;;;;5415804;26;20252;-61
2024/04/25 05:42:36;;;;;;;5.60;3.30;;;17.20;37.80;;;;;;5415917;26;20271;-62
2024/04/25 05:45:04;;;;;;;4.95;2.45;;;17.20;37.80;;;;;;5415824;26;20224;-62
2024/04/25 05:47:33;;;;;;;4.50;2.60;;;17.20;37.80;;;;;;5415771;26;20271;-59
2024/04/25 05:50:03;;;;;;;5.25;3.03;;;17.20;38.50;;;;;;5415824;26;20225;-62
2024/04/25 05:52:32;;;;;;;6.07;3.20;;;17.20;38.50;;;;;;5415614;26;20229;-62
2024/04/25 05:55:02;;;;;;;7.20;3.00;;;17.20;37.80;;;;;;5415522;26;20294;-61
2024/04/25 05:57:31;;;;;;;5.82;2.53;;;17.10;37.80;;;;;;5415447;26;20233;-62
2024/04/25 06:00:02;;;;;;;5.93;2.90;;;17.20;37.90;;;;;;5415587;26;20229;-62
2024/04/25 06:02:30;;;;;;;7.22;2.97;;;17.20;38.60;;;;;;5415238;26;20237;-62
2024/04/25 06:04:59;;;;;;;7.22;2.83;;;17.20;37.90;;;;;;5415555;26;20213;-63
2024/04/25 06:07:27;;;;;;;5.15;2.58;;;17.20;38.00;;;;;;5415378;26;20237;-60
2024/04/25 06:09:56;;;;;;;6.45;2.83;;;17.20;38.00;;;;;;5415249;26;20217;-62
2024/04/25 06:12:24;;;;;;;5.18;2.70;;;17.20;38.00;;;;;;5415291;26;20288;-62
2024/04/25 06:14:53;;;;;;;3.90;2.45;;;17.20;38.00;;;;;;5415404;26;20213;-63
2024/04/25 06:17:24;;;;;;;7.05;2.70;;;17.20;38.00;;;;;;5414942;26;20237;-62
2024/04/25 06:19:53;;;;;;;6.15;2.97;;;17.20;38.10;;;;;;5415298;26;20222;-63
2024/04/25 06:22:22;;;;;;;4.55;2.88;;;17.20;38.70;;;;;;5414976;26;20566;-62
2024/04/25 06:24:51;;;;;;;6.93;2.92;;;17.20;38.00;;;;;;5397359;26;20680;-62
2024/04/25 06:27:19;;;;;;;5.57;2.85;;;17.20;38.00;;;;;;5416311;26;20282;-62
2024/04/25 06:29:48;;;;;;;6.38;3.08;;;17.30;38.10;;;;;;5442357;26;20227;-62
2024/04/25 06:32:16;;;;;;;4.45;2.33;;;17.20;38.00;;;;;;5449056;26;20231;-62
2024/04/25 06:34:50;;;;;;;5.15;2.33;;;17.30;38.10;;;;;;5449609;26;20271;-62
2024/04/25 06:37:19;;;;;;;5.65;2.50;;;17.30;38.10;;;;;;5440039;26;20292;-62
2024/04/25 06:39:49;;;;;;;4.13;3.00;;;17.40;38.20;;;;;;5440278;26;20270;-62
2024/04/25 06:42:18;;;;;;;5.70;2.88;;;17.40;38.10;;;;;;5442223;26;20584;-62
2024/04/25 06:44:47;;;;;;;6.18;2.80;;;17.40;38.10;;;;;;5442570;26;20603;-61
2024/04/25 06:47:16;;;;;;;2.80;2.30;;;17.40;38.70;;;;;;5439752;26;20287;-61
2024/04/25 06:49:47;;;;;;;4.70;2.80;;;17.50;38.20;;;;;;5439897;26;20278;-63
2024/04/25 06:52:15;;;;;;;6.25;2.85;;;17.50;38.30;;;;;;5429081;26;20302;-62
2024/04/25 06:54:44;;;;;;;9.05;2.75;;;17.50;38.30;;;;;;5428609;26;20236;-61
2024/04/25 06:57:13;;;;;;;6.65;2.83;;;17.50;38.60;;;;;;5419866;26;20963;-61
2024/04/25 06:59:41;;;;;;;5.97;2.90;;;17.50;38.50;;;;;;5421917;26;20279;-58
2024/04/25 07:02:10;;;;;;;6.90;3.30;;;17.60;38.60;;;;;;5418708;26;20354;-61
2024/04/25 07:04:39;;;;;;;4.35;2.67;;;17.60;38.50;;;;;;5426897;26;20802;-58
2024/04/25 07:07:10;;;;;;;6.60;3.08;;;17.70;38.60;;;;;;5428772;26;20385;-61
2024/04/25 07:09:38;;;;;;;4.82;3.00;;;17.70;38.60;;;;;;5417021;26;20248;-60
2024/04/25 07:12:07;;;;;;;5.72;3.00;;;17.60;38.50;;;;;;5426501;26;20280;-62
2024/04/25 07:14:37;;;;;;;5.45;2.60;;;17.60;38.50;;;;;;5419886;26;20301;-58
2024/04/25 07:17:06;;;;;;;6.68;2.70;;;17.60;38.50;;;;;;5426881;26;20235;-62
2024/04/25 07:19:34;;;;;;;6.72;2.78;;;17.60;38.50;;;;;;5418017;26;20233;-62
2024/04/25 07:22:03;;;;;;;7.05;3.00;;;17.70;38.60;;;;;;5412983;26;20265;-60
2024/04/25 07:24:34;;;;;;;5.45;2.55;;;17.70;38.60;;;;;;5416184;26;21095;-62
2024/04/25 07:27:03;;;;;;;6.13;2.70;;;17.70;38.70;;;;;;5428580;26;21794;-61
2024/04/25 07:29:31;;;;;;;4.30;2.35;;;17.70;38.70;;;;;;5419444;26;20250;-61
2024/04/25 07:32:00;;;;;;;6.78;2.65;;;17.70;38.60;;;;;;5431682;26;20238;-59
2024/04/25 07:34:29;;;;;;;11.18;3.22;;;17.70;38.70;;;;;;5423602;26;20246;-62
2024/04/25 07:36:58;;;;;;;5.10;2.67;;;17.80;38.80;;;;;;5412250;26;20233;-59
2024/04/25 07:39:26;;;;;;;5.10;2.65;;;17.70;38.70;;;;;;5421084;26;20231;-61
2024/04/25 07:41:57;;;;;;;8.32;2.88;;;17.80;38.80;;;;;;5423715;26;20244;-60
2024/04/25 07:44:26;;;;;;;6.72;3.25;;;17.80;38.80;;;;;;5426653;26;20313;-62
2024/04/25 07:46:55;;;;;;;4.30;2.50;;;17.80;38.90;;;;;;5426418;26;20240;-62
2024/04/25 07:49:23;;;;;;;5.43;2.80;;;17.70;39.40;;;;;;5423861;26;21250;-61
2024/04/25 07:51:52;;;;;;;7.35;3.00;;;17.80;39.00;;;;;;5430024;26;20227;-57
2024/04/25 07:54:21;;;;;;;4.95;2.67;;;17.70;39.20;;;;;;5427325;26;20233;-62
2024/04/25 07:56:49;;;;;;;6.65;2.25;;;17.80;39.10;;;;;;5423949;26;20247;-62
2024/04/25 07:59:21;;;;;;;7.88;2.65;;;17.80;39.40;;;;;;5417433;26;20238;-61
2024/04/25 08:01:50;;;;;;;4.32;2.50;;;17.80;39.40;;;;;;5426590;26;20241;-63
2024/04/25 08:04:19;;;;;;;17.52;3.25;;;17.80;39.40;;;;;;5419259;26;20345;-60
2024/04/25 08:06:47;;;;;;;7.80;2.65;;;17.80;39.50;;;;;;5414657;26;20237;-62
2024/04/25 08:09:16;;;;;;;6.95;2.40;;;17.80;39.50;;;;;;5430938;26;20238;-62
2024/04/25 08:11:45;;;;;;;5.18;2.72;;;17.90;39.60;;;;;;5430106;26;20236;-62
2024/04/25 08:14:14;;;;;;;9.43;2.80;;;17.90;39.60;;;;;;5433476;26;20276;-63
2024/04/25 08:16:45;;;;;;;3.63;2.30;;;17.90;39.50;;;;;;5423900;26;20235;-61
2024/04/25 08:19:14;;;;;;;6.45;2.50;;;17.90;39.60;;;;;;5425442;26;20235;-61
2024/04/25 08:21:42;;;;;;;5.32;2.45;;;17.90;39.50;;;;;;5417114;26;20245;-62
2024/04/25 08:24:13;;;;;;;6.70;2.78;;;17.90;39.50;;;;;;5417218;26;20282;-57
2024/04/25 08:26:41;;;;;;;5.40;2.63;;;17.90;39.50;;;;;;5431350;26;20947;-62
2024/04/25 08:29:12;;;;;;;3.60;2.28;;;17.90;39.50;;;;;;5430146;26;20240;-63
2024/04/25 08:31:41;;;;;;;5.28;2.60;;;17.90;39.50;;;;;;5418212;26;20245;-63
2024/04/25 08:34:13;;;;;;;8.52;2.75;;;17.90;40.20;;;;;;5433955;26;20775;-60
2024/04/25 08:36:41;;;;;;;6.20;2.50;;;17.90;39.50;;;;;;5428489;26;20402;-63
2024/04/25 08:39:10;;;;;;;5.70;2.22;;;18.00;39.60;;;;;;5431211;26;20338;-62
2024/04/25 08:41:42;;;;;;;4.72;2.60;;;18.00;39.70;;;;;;5429442;26;20224;-61
2024/04/25 08:44:11;;;;;;;6.75;2.60;;;18.00;39.70;;;;;;5432824;26;20271;-60
2024/04/25 08:46:41;;;;;;;5.75;2.17;;;18.00;39.70;;;;;;5426312;26;20327;-63
2024/04/25 08:49:13;;;;;;;7.05;2.22;;;18.00;39.70;;;;;;5428292;26;20227;-62
2024/04/25 08:51:42;;;;;;;4.45;2.40;;;18.10;39.70;;;;;;5430537;26;20224;-59
2024/04/25 08:54:12;;;;;;;3.17;2.25;;;18.00;39.70;;;;;;5429005;26;20228;-58
2024/04/25 08:56:41;;;;;;;4.47;2.20;;;18.00;39.70;;;;;;5428270;26;20286;-63
2024/04/25 08:59:10;;;;;;;3.97;2.17;;;18.10;39.70;;;;;;5423583;26;20270;-62
2024/04/25 09:01:42;;;;;;;6.97;2.42;;;18.10;39.80;;;;;;5428417;26;20236;-60
2024/04/25 09:04:18;;;;;;;5.13;2.65;;;18.10;39.80;;;;;;5424264;26;20253;-51
2024/04/25 09:06:48;;;;;;;5.25;2.50;;;18.10;39.70;;;;;;5391724;26;20243;-58
2024/04/25 09:09:17;;;;;;;4.47;2.38;;;18.20;39.80;;;;;;5413188;26;20288;-58
2024/04/25 09:11:46;;;;;;;4.43;2.28;;;18.20;39.80;;;;;;5417931;26;20233;-62
2024/04/25 09:14:14;;;;;;;6.03;2.20;;;18.20;39.80;;;;;;5423659;26;20274;-56
2024/04/25 09:16:43;;;;;;;6.88;2.45;;;18.20;39.90;;;;;;5422087;26;20269;-61
2024/04/25 09:19:14;;;;;;;5.85;2.30;;;18.30;40.00;;;;;;5416738;26;20856;-61
2024/04/25 09:21:43;;;;;;;3.35;2.20;;;18.30;39.90;;;;;;5420855;26;20268;-57
2024/04/25 09:24:12;;;;;;;4.07;2.28;;;18.30;39.90;;;;;;5426007;26;20273;-60
2024/04/25 09:26:40;;;;;;;4.85;2.13;;;18.30;39.90;;;;;;5416916;26;20291;-62
2024/04/25 09:29:09;;;;;;;3.45;1.90;;;18.30;40.00;;;;;;5417386;26;20395;-60
2024/04/25 09:31:39;;;;;;;5.00;2.40;;;18.40;40.00;;;;;;5424199;26;20285;-62
2024/04/25 09:34:08;;;;;;;3.85;2.13;;;18.40;40.00;;;;;;5420403;26;20237;-60
2024/04/25 09:36:40;;;;;;;6.65;2.65;;;18.40;40.00;;;;;;5411346;26;21119;-62
2024/04/25 09:39:08;;;;;;;4.57;2.10;;;18.40;40.00;;;;;;5427067;26;20234;-62
2024/04/25 09:41:37;;;;;;;3.95;1.98;;;18.40;39.90;;;;;;5424099;26;20372;-60
2024/04/25 09:44:06;;;;;;;4.75;2.20;;;18.40;39.80;;;;;;5420914;26;20286;-59
2024/04/25 09:46:40;;;;;;;4.78;1.90;;;18.40;39.80;;;;;;5404031;26;21472;-61
2024/04/25 09:49:09;;;;;;;5.03;2.30;;;18.50;39.90;;;;;;5423211;26;20852;-62
2024/04/25 09:51:48;;;;;;;4.70;2.45;;;18.50;39.80;;;;;;5413055;26;20685;-61
2024/04/25 09:54:19;;;;;;;4.15;2.70;;;18.50;39.90;;;;;;5414842;26;20222;-59
2024/04/25 09:56:52;;;;;;;2.95;2.03;;;18.50;39.80;;;;;;5407363;26;20289;-61
2024/04/25 09:59:27;;;;;;;3.00;2.17;;;18.50;39.90;;;;;;5421418;26;20302;-60
2024/04/25 10:01:59;;;;;;;12.60;2.40;;;18.50;39.80;;;;;;5418890;26;20320;-62
2024/04/25 10:04:30;;;;;;;4.25;2.10;;;18.50;39.80;;;;;;5423951;26;20226;-63
2024/04/25 10:07:02;;;;;;;4.07;1.92;;;18.60;39.80;;;;;;5419847;26;20239;-60
2024/04/25 10:09:32;;;;;;;5.60;2.75;;;18.60;39.80;;;;;;5420115;26;20239;-58
2024/04/25 10:12:01;;;;;;;3.53;2.15;;;18.60;39.80;;;;;;5418293;26;21842;-61
2024/04/25 10:14:30;;;;;;;4.40;2.08;;;18.60;39.80;;;;;;5423987;26;20282;-62
2024/04/25 10:16:58;;;;;;;3.58;2.00;;;18.60;39.80;;;;;;5422710;26;20248;-59
2024/04/25 10:19:35;;;;;;;5.18;2.10;;;18.60;39.80;;;;;;5433381;26;21237;-56
2024/04/25 10:22:06;;;;;;;2.42;2.00;;;18.60;39.90;;;;;;5435389;26;20245;-62
2024/04/25 10:24:43;;;;;;;5.70;2.58;;;18.60;40.60;;;;;;5422241;26;20656;-63
2024/04/25 10:27:13;;;;;;;9.88;2.25;;;18.60;40.10;;;;;;5431223;26;20235;-63
2024/04/25 10:29:41;;;;;;;3.55;1.83;;;18.60;40.10;;;;;;5433467;26;20236;-60
2024/04/25 10:32:10;;;;;;;5.55;2.05;;;18.60;40.10;;;;;;5390598;26;20730;-62
2024/04/25 10:34:38;;;;;;;4.07;1.98;;;18.70;40.20;;;;;;5394455;26;21006;-62
2024/04/25 10:37:10;;;;;;;3.05;2.08;;;18.70;40.90;;;;;;5391614;26;20237;-61
2024/04/25 10:39:39;;;;;;;4.55;1.77;;;18.70;40.20;;;;;;5392412;26;20242;-62
2024/04/25 10:42:16;;;;;;;3.75;1.65;;;18.70;40.20;;;;;;5393923;26;20288;-60
2024/04/25 10:44:48;;;;;;;2.72;1.80;;;18.70;40.20;;;;;;5392310;26;20731;-60
2024/04/25 10:47:18;;;;;;;5.35;2.00;;;18.80;40.40;;;;;;5377068;26;20392;-56
2024/04/25 10:49:51;;;;;;;7.95;2.20;;;18.80;40.30;;;;;;5375075;26;20743;-59
2024/04/25 10:52:25;;;;;;;8.85;2.22;;;18.80;41.00;;;;;;5327709;26;20975;-62
2024/04/25 10:54:56;;;;;;;3.00;1.83;;;18.80;40.40;;;;;;5326714;26;20614;-64
2024/04/25 10:57:25;;;;;;;4.20;2.00;;;18.80;40.40;;;;;;5386662;26;20233;-62
2024/04/25 11:00:03;;;;;;;3.20;2.00;;;18.80;40.40;;;;;;5326726;26;20240;-63
2024/04/25 11:02:37;;;;;;;5.72;1.80;;;18.80;40.40;;;;;;5386637;26;20736;-60
2024/04/25 11:05:07;;;;;;;6.30;2.00;;;18.80;40.60;;;;;;5387055;26;20232;-59
2024/04/25 11:07:39;;;;;;;5.22;2.03;;;18.90;40.80;;;;;;5384193;26;20293;-61
2024/04/25 11:10:09;;;;;;;3.35;2.13;;;18.90;40.70;;;;;;5386127;26;20242;-60
2024/04/25 11:12:38;;;;;;;6.57;2.00;;;18.90;40.70;;;;;;5381836;26;20308;-62
2024/04/25 11:15:16;;;;;;;7.10;1.73;;;18.90;40.70;;;;;;5385437;26;20355;-60
2024/04/25 11:17:46;;;;;;;4.63;2.15;;;18.90;40.80;;;;;;5385037;26;20237;-63
2024/04/25 11:20:14;;;;;;;3.53;2.03;;;18.90;40.90;;;;;;5388463;26;21301;-62
2024/04/25 11:22:45;;;;;;;7.13;2.22;;;18.90;41.10;;;;;;5383454;26;20335;-60
2024/04/25 11:25:19;;;;;;;3.75;1.85;;;18.90;41.10;;;;;;5389398;26;20594;-60
2024/04/25 11:27:50;;;;;;;3.40;1.50;;;18.90;41.20;;;;;;5385347;26;20254;-63
2024/04/25 11:30:18;;;;;;;4.57;2.00;;;18.90;41.30;;;;;;5400433;26;20289;-62
2024/04/25 11:32:48;;;;;;;6.45;2.20;;;18.90;41.30;;;;;;5414493;26;20295;-64
2024/04/25 11:35:22;;;;;;;6.57;2.03;;;19.00;41.40;;;;;;5424608;26;20233;-61
2024/04/25 11:37:57;;;;;;;4.15;2.17;;;18.90;41.30;;;;;;5422270;26;20358;-60
2024/04/25 11:40:33;;;;;;;6.57;2.17;;;19.00;41.30;;;;;;5417914;26;20263;-62
2024/04/25 11:43:02;;;;;;;3.58;1.90;;;19.00;41.30;;;;;;5420865;26;20603;-64
2024/04/25 11:45:31;;;;;;;9.25;2.67;;;19.10;41.40;;;;;;5421572;26;20284;-62
2024/04/25 11:47:59;;;;;;;7.10;1.90;;;19.10;41.30;;;;;;5416056;26;20791;-63
2024/04/25 11:50:28;;;;;;;3.42;2.20;;;19.20;41.30;;;;;;5419083;26;20231;-62
2024/04/25 17:33:38;;;;;;;5.05;2.35;;;18.70;40.30;;;;;;5401760;26;20266;-62
2024/04/25 17:36:07;;;;;;;4.25;2.10;;;18.70;40.40;;;;;;5431923;26;20788;-60
2024/04/25 17:38:40;;;;;;;3.45;1.90;;;18.70;40.30;;;;;;5432846;26;20274;-62
2024/04/25 17:41:08;;;;;;;4.72;2.08;;;18.70;40.40;;;;;;5424682;26;20722;-61
2024/04/25 17:43:37;;;;;;;4.90;1.85;;;18.70;40.30;;;;;;5432305;26;20643;-61
2024/04/25 17:46:06;;;;;;;3.95;2.00;;;18.70;40.30;;;;;;5433215;26;20274;-61
2024/04/25 17:48:37;;;;;;;3.38;2.03;;;18.70;40.30;;;;;;5433025;26;20228;-59
2024/04/25 17:51:06;;;;;;;5.20;2.03;;;18.70;40.30;;;;;;5428729;26;20228;-59
2024/04/25 17:53:36;;;;;;;4.25;1.95;;;18.70;40.40;;;;;;5431577;26;20287;-62
2024/04/25 17:56:04;;;;;;;7.47;2.33;;;18.60;40.20;;;;;;5432277;26;20369;-62
2024/04/25 17:58:34;;;;;;;4.72;2.10;;;18.60;40.30;;;;;;5431665;26;20302;-61
2024/04/25 18:01:03;;;;;;;6.13;2.17;;;18.60;40.20;;;;;;5398494;26;20277;-61
2024/04/25 18:03:32;;;;;;;4.32;2.15;;;18.70;40.30;;;;;;5427809;26;20259;-60
2024/04/25 18:06:05;;;;;;;4.05;2.42;;;18.60;40.30;;;;;;5425906;26;20279;-60
2024/04/25 18:08:33;;;;;;;4.78;2.20;;;18.60;40.30;;;;;;5421400;26;20365;-60
2024/04/25 18:11:02;;;;;;;2.88;2.10;;;18.60;40.40;;;;;;5401847;26;20295;-55
2024/04/25 18:13:31;;;;;;;3.95;2.33;;;18.60;40.60;;;;;;5361829;26;20501;-58
2024/04/25 18:15:59;;;;;;;3.78;1.90;;;18.70;41.20;;;;;;5365555;26;20332;-57
2024/04/25 18:18:29;;;;;;;6.20;2.95;;;18.70;41.40;;;;;;5363286;26;20325;-56
2024/04/25 18:20:57;;;;;;;5.70;2.50;;;18.90;41.70;;;;;;5370994;26;20372;-56
2024/04/25 18:23:28;;;;;;;7.22;2.20;;;19.00;41.90;;;;;;5370261;26;22733;-57
2024/04/25 18:25:57;;;;;;;3.40;1.98;;;19.00;42.00;;;;;;5370924;26;20317;-57
2024/04/25 18:28:26;;;;;;;6.00;2.22;;;19.10;42.70;;;;;;5371443;26;20309;-56
2024/04/25 18:30:54;;;;;;;3.80;1.98;;;19.20;42.10;;;;;;5371069;26;20308;-57
2024/04/25 18:33:23;;;;;;;3.63;2.30;;;19.30;42.20;;;;;;5370450;26;20442;-54
2024/04/25 18:35:52;;;;;;;7.00;1.88;;;19.30;42.10;;;;;;5371028;26;20305;-60
2024/04/25 18:38:21;;;;;;;9.13;2.60;;;19.30;42.30;;;;;;5369121;26;20348;-58
2024/04/25 18:40:53;;;;;;;9.23;1.80;;;19.40;42.30;;;;;;5368795;26;20312;-57
2024/04/25 18:43:21;;;;;;;6.32;2.00;;;19.50;42.40;;;;;;5368386;26;20291;-56